Time;durP1;ratioP1;P1;durP2;ratioP2;P2;SDS_P1;SDS_P2;PMS_P1;PMS_P2;Temp;Humidity;BMP_temperature;BMP_pressure;BME280_temperature;BME280_humidity;BME280_pressure;Samples;Min_cycle;Max_cycle;Signal;HPM_P1;HPM_P2
2023/09/05 00:00:10;;;;;;;;;2.00;2.00;;;;;-146.67;100.00;57155.34;5069175;28;9263;-74
2023/09/05 00:02:37;;;;;;;;;3.00;2.67;;;;;-146.67;100.00;57155.34;5113111;28;9121;-74
2023/09/05 00:05:05;;;;;;;;;0.67;0.67;;;;;-146.67;100.00;57155.34;5102602;28;10262;-74
2023/09/05 00:07:31;;;;;;;;;4.33;3.00;;;;;-146.67;100.00;57155.34;5084350;28;9139;-74
2023/09/05 00:09:58;;;;;;;;;2.00;2.00;;;;;-146.67;100.00;57155.34;5103743;28;9301;-75
2023/09/05 00:12:23;;;;;;;;;2.00;2.00;;;;;-146.67;100.00;57155.34;5103446;28;8765;-75
2023/09/05 00:14:49;;;;;;;;;1.00;1.00;;;;;-146.67;100.00;57155.34;5084132;28;11059;-74
2023/09/05 00:17:14;;;;;;;;;2.00;2.00;;;;;-146.67;100.00;57155.34;5103389;28;8771;-74
2023/09/05 00:19:40;;;;;;;;;4.00;2.67;;;;;-146.67;100.00;57155.34;5101145;28;8799;-74
2023/09/05 00:22:05;;;;;;;;;2.00;2.00;;;;;-146.67;100.00;57155.34;5084461;28;8822;-74
2023/09/05 00:24:36;;;;;;;;;3.00;3.00;;;;;-146.67;100.00;57155.34;5102800;28;8925;-75
2023/09/05 00:27:10;;;;;;;;;1.67;1.67;;;;;-146.67;100.00;57155.34;5117641;28;8738;-74
2023/09/05 00:29:35;;;;;;;;;1.67;1.67;;;;;-146.67;100.00;57155.34;5098615;28;9205;-74
2023/09/05 00:32:02;;;;;;;;;3.00;2.00;;;;;-146.67;100.00;57155.34;5100927;28;9323;-74
2023/09/05 00:34:28;;;;;;;;;2.67;2.67;;;;;-146.67;100.00;57155.34;5100434;28;10202;-74
2023/09/05 00:36:54;;;;;;;;;3.00;3.00;;;;;-146.67;100.00;57155.34;5100960;28;9024;-74
2023/09/05 00:39:20;;;;;;;;;1.67;1.67;;;;;-146.67;100.00;57155.34;5103129;28;9153;-75
2023/09/05 00:41:46;;;;;;;;;2.33;2.00;;;;;-146.67;100.00;57155.34;5102886;28;8791;-74
2023/09/05 00:44:14;;;;;;;;;0.33;0.33;;;;;-146.67;100.00;57155.34;5084294;28;11069;-74
2023/09/05 00:46:42;;;;;;;;;2.00;2.00;;;;;-146.67;100.00;57155.34;5102570;28;9196;-74
2023/09/05 00:49:08;;;;;;;;;2.00;2.00;;;;;-146.67;100.00;57155.34;5102425;28;9089;-74
2023/09/05 00:51:34;;;;;;;;;3.00;3.00;;;;;-146.67;100.00;57155.34;5093297;28;9170;-74
2023/09/05 00:54:02;;;;;;;;;3.33;2.00;;;;;-146.67;100.00;57155.34;5102687;28;9500;-74
2023/09/05 00:56:27;;;;;;;;;2.67;2.67;;;;;-146.67;100.00;57155.34;5103114;28;8774;-74
2023/09/05 00:58:53;;;;;;;;;3.67;2.33;;;;;-146.67;100.00;57155.34;5097396;28;9293;-75
2023/09/05 01:01:18;;;;;;;;;4.00;3.00;;;;;-146.67;100.00;57155.34;5100884;28;8811;-75
2023/09/05 01:03:44;;;;;;;;;3.00;2.67;;;;;-146.67;100.00;57155.34;5102839;28;8779;-74
2023/09/05 01:06:22;;;;;;;;;3.33;2.00;;;;;-146.67;100.00;57155.34;5101087;28;8823;-74
2023/09/05 01:08:56;;;;;;;;;3.00;2.00;;;;;-146.67;100.00;57155.34;5102500;28;8965;-74
2023/09/05 01:11:21;;;;;;;;;3.33;1.67;;;;;-146.67;100.00;57155.34;5102675;28;9381;-73
2023/09/05 01:13:47;;;;;;;;;2.33;2.00;;;;;-146.67;100.00;57155.34;5102116;28;9485;-74
2023/09/05 01:16:12;;;;;;;;;3.67;2.67;;;;;-146.67;100.00;57155.34;5102440;28;8865;-74
2023/09/05 01:18:40;;;;;;;;;2.00;2.00;;;;;-146.67;100.00;57155.34;5102593;28;8802;-74
2023/09/05 01:21:29;;;;;;;;;2.33;2.33;;;;;-146.67;100.00;57155.34;5116931;28;8864;-74
2023/09/05 01:24:17;;;;;;;;;1.67;1.67;;;;;-146.67;100.00;57155.34;5100750;28;10034;-74
2023/09/05 01:26:43;;;;;;;;;2.00;2.00;;;;;-146.67;100.00;57155.34;5101135;28;9294;-74
2023/09/05 01:29:11;;;;;;;;;2.33;2.33;;;;;-146.67;100.00;57155.34;5101634;28;9297;-74
2023/09/05 01:31:38;;;;;;;;;3.00;2.00;;;;;-146.67;100.00;57155.34;5102670;28;9315;-74
2023/09/05 01:34:03;;;;;;;;;5.00;0.67;;;;;-146.67;100.00;57155.34;5102149;28;9418;-74
2023/09/05 01:36:28;;;;;;;;;2.00;2.00;;;;;-146.67;100.00;57155.34;5102131;28;9288;-73
2023/09/05 01:38:54;;;;;;;;;2.00;2.00;;;;;-146.67;100.00;57155.34;5102054;28;8791;-74
2023/09/05 01:41:20;;;;;;;;;2.33;2.00;;;;;-146.67;100.00;57155.34;5103979;28;8828;-74
2023/09/05 01:43:45;;;;;;;;;5.00;3.00;;;;;-146.67;100.00;57155.34;5103672;28;9560;-74
2023/09/05 01:46:11;;;;;;;;;4.00;3.67;;;;;-146.67;100.00;57155.34;5121102;28;8811;-74
2023/09/05 01:48:36;;;;;;;;;1.67;1.67;;;;;-146.67;100.00;57155.34;5087531;28;9539;-74
2023/09/05 01:51:02;;;;;;;;;2.67;2.67;;;;;-146.67;100.00;57155.34;5104837;28;8813;-74
2023/09/05 01:53:27;;;;;;;;;2.67;2.67;;;;;-146.67;100.00;57155.34;5105124;28;8827;-74
2023/09/05 01:55:52;;;;;;;;;3.67;1.67;;;;;-146.67;100.00;57155.34;5104246;28;8826;-74
2023/09/05 01:58:18;;;;;;;;;3.00;3.00;;;;;-146.67;100.00;57155.34;5103207;28;8804;-74
2023/09/05 02:00:43;;;;;;;;;2.00;2.00;;;;;-146.67;100.00;57155.34;5104085;28;8804;-74
2023/09/05 02:03:11;;;;;;;;;2.67;2.67;;;;;-146.67;100.00;57155.34;5105094;28;8836;-74
2023/09/05 02:06:01;;;;;;;;;2.67;2.00;;;;;-146.67;100.00;57155.34;5104806;28;8855;-74
2023/09/05 02:08:27;;;;;;;;;4.00;3.00;;;;;-146.67;100.00;57155.34;5086417;28;10362;-74
2023/09/05 02:10:52;;;;;;;;;4.00;4.00;;;;;-146.67;100.00;57155.34;5104577;28;9567;-74
2023/09/05 02:13:17;;;;;;;;;3.00;2.00;;;;;-146.67;100.00;57155.34;5123623;28;9106;-74
2023/09/05 02:15:43;;;;;;;;;4.33;2.33;;;;;-146.67;100.00;57155.34;5125402;28;8789;-74
2023/09/05 02:18:10;;;;;;;;;3.00;3.00;;;;;-146.67;100.00;57155.34;5085372;28;8818;-74
2023/09/05 02:20:40;;;;;;;;;3.00;3.00;;;;;-146.67;100.00;57155.34;5083402;28;11392;-74
2023/09/05 02:23:06;;;;;;;;;3.00;3.00;;;;;-146.67;100.00;57155.34;5084556;28;9618;-74
2023/09/05 02:25:31;;;;;;;;;2.00;2.00;;;;;-146.67;100.00;57155.34;5084559;28;9588;-74
2023/09/05 02:27:57;;;;;;;;;4.00;3.33;;;;;-146.67;100.00;57155.34;5104147;28;9611;-74
2023/09/05 02:30:22;;;;;;;;;3.00;3.00;;;;;-146.67;100.00;57155.34;5103336;28;8795;-74
2023/09/05 02:32:54;;;;;;;;;4.00;4.00;;;;;-146.67;100.00;57155.34;5085966;28;8826;-74
2023/09/05 02:35:24;;;;;;;;;5.00;2.33;;;;;-146.67;100.00;57155.34;5103993;28;8769;-74
2023/09/05 02:37:54;;;;;;;;;5.33;2.33;;;;;-146.67;100.00;57155.34;5103127;28;9487;-74
2023/09/05 02:40:20;;;;;;;;;2.00;2.00;;;;;-146.67;100.00;57155.34;5102898;28;10478;-74
2023/09/05 02:42:46;;;;;;;;;4.33;3.00;;;;;-146.67;100.00;57155.34;5103224;28;9649;-74
2023/09/05 02:45:12;;;;;;;;;3.00;3.00;;;;;-146.67;100.00;57155.34;5104861;28;10195;-74
2023/09/05 02:47:38;;;;;;;;;3.75;3.00;;;;;-146.67;100.00;57155.34;5104762;28;8811;-74
2023/09/05 02:50:04;;;;;;;;;4.00;2.50;;;;;-146.67;100.00;57155.34;5102621;28;9594;-74
2023/09/05 02:52:31;;;;;;;;;2.00;2.00;;;;;-146.67;100.00;57155.34;5102085;28;11480;-74
2023/09/05 02:54:56;;;;;;;;;3.00;3.00;;;;;-146.67;100.00;57155.34;5083185;28;8795;-74
2023/09/05 02:57:22;;;;;;;;;4.00;2.67;;;;;-146.67;100.00;57155.34;5084877;28;9388;-74
2023/09/05 02:59:52;;;;;;;;;5.00;3.00;;;;;-146.67;100.00;57155.34;5104704;28;8787;-74
2023/09/05 03:02:17;;;;;;;;;3.67;2.67;;;;;-146.67;100.00;57155.34;5083697;28;8765;-74
2023/09/05 03:04:42;;;;;;;;;6.25;3.00;;;;;-146.67;100.00;57155.34;5084553;28;9482;-74
2023/09/05 03:07:08;;;;;;;;;6.00;4.25;;;;;-146.67;100.00;57155.34;5092521;28;8823;-74
2023/09/05 03:09:33;;;;;;;;;3.00;3.00;;;;;-146.67;100.00;57155.34;5102932;28;8927;-74
2023/09/05 03:11:59;;;;;;;;;2.00;2.00;;;;;-146.67;100.00;57155.34;5104048;28;8876;-74
2023/09/05 03:14:25;;;;;;;;;3.67;2.67;;;;;-146.67;100.00;57155.34;5104607;28;8835;-74
2023/09/05 03:16:50;;;;;;;;;4.00;3.00;;;;;-146.67;100.00;57155.34;5102949;28;8795;-74
2023/09/05 03:19:15;;;;;;;;;4.33;3.33;;;;;-146.67;100.00;57155.34;5104300;28;10280;-74
2023/09/05 03:21:41;;;;;;;;;2.00;2.00;;;;;-146.67;100.00;57155.34;5102626;28;8900;-74
2023/09/05 03:24:07;;;;;;;;;5.00;3.00;;;;;-146.67;100.00;57155.34;5102064;28;9343;-74
2023/09/05 03:26:32;;;;;;;;;3.67;2.67;;;;;-146.67;100.00;57155.34;5102878;28;8844;-74
2023/09/05 03:28:59;;;;;;;;;5.67;4.33;;;;;-146.67;100.00;57155.34;5102457;28;9262;-74
2023/09/05 03:31:28;;;;;;;;;4.75;4.75;;;;;-146.67;100.00;57155.34;5104110;28;8739;-74
2023/09/05 03:33:54;;;;;;;;;7.00;5.75;;;;;-146.67;100.00;57155.34;5102665;28;9449;-74
2023/09/05 03:36:19;;;;;;;;;6.00;6.00;;;;;-146.67;100.00;57155.34;5102582;28;9691;-74
2023/09/05 03:38:45;;;;;;;;;4.00;2.67;;;;;-146.67;100.00;57155.34;5103069;28;9647;-74
2023/09/05 03:41:10;;;;;;;;;4.00;4.00;;;;;-146.67;100.00;57155.34;5103911;28;8814;-74
2023/09/05 03:43:36;;;;;;;;;8.25;4.75;;;;;-146.67;100.00;57155.34;5103812;28;8806;-74
2023/09/05 03:46:01;;;;;;;;;4.75;3.00;;;;;-146.67;100.00;57155.34;5102364;28;8906;-74
2023/09/05 03:48:26;;;;;;;;;4.00;3.67;;;;;-146.67;100.00;57155.34;5101695;28;8933;-74
2023/09/05 03:50:52;;;;;;;;;4.33;3.33;;;;;-146.67;100.00;57155.34;5103214;28;8914;-74
2023/09/05 03:53:17;;;;;;;;;5.67;5.33;;;;;-146.67;100.00;57155.34;5098617;28;8851;-74
2023/09/05 03:55:44;;;;;;;;;4.00;3.00;;;;;-146.67;100.00;57155.34;5102340;28;9575;-74
2023/09/05 03:58:11;;;;;;;;;8.00;3.00;;;;;-146.67;100.00;57155.34;5101981;28;8784;-74
2023/09/05 04:00:36;;;;;;;;;5.00;4.00;;;;;-146.67;100.00;57155.34;5103876;28;10706;-74
2023/09/05 04:03:04;;;;;;;;;7.00;4.50;;;;;-146.67;100.00;57155.34;5103407;28;9517;-74
2023/09/05 04:05:32;;;;;;;;;6.00;4.00;;;;;-146.67;100.00;57155.34;5102123;28;8976;-74
2023/09/05 04:07:58;;;;;;;;;3.00;3.00;;;;;-146.67;100.00;57155.34;5101073;28;9424;-74
2023/09/05 04:10:23;;;;;;;;;3.50;3.00;;;;;-146.67;100.00;57155.34;5101815;28;10151;-74
2023/09/05 04:12:52;;;;;;;;;4.75;3.00;;;;;-146.67;100.00;57155.34;5103832;28;8823;-74
2023/09/05 04:15:21;;;;;;;;;5.25;3.50;;;;;-146.67;100.00;57155.34;5102171;28;9329;-74
2023/09/05 04:17:47;;;;;;;;;5.50;4.00;;;;;-146.67;100.00;57155.34;5103321;28;9452;-74
2023/09/05 04:20:13;;;;;;;;;8.67;4.00;;;;;-146.67;100.00;57155.34;5102607;28;9905;-74
2023/09/05 04:22:39;;;;;;;;;4.50;3.00;;;;;-146.67;100.00;57155.34;5100628;28;8767;-74
2023/09/05 04:25:06;;;;;;;;;3.25;3.00;;;;;-146.67;100.00;57155.34;5103549;28;10044;-74
2023/09/05 04:27:32;;;;;;;;;4.00;4.00;;;;;-146.67;100.00;57155.34;5103121;28;8728;-74
2023/09/05 04:29:58;;;;;;;;;5.00;5.00;;;;;-146.67;100.00;57155.34;5101961;28;9893;-74
2023/09/05 04:32:28;;;;;;;;;4.00;3.00;;;;;-146.67;100.00;57155.34;5101625;28;8807;-74
2023/09/05 04:34:58;;;;;;;;;3.50;3.50;;;;;-146.67;100.00;57155.34;5082002;28;9580;-74
2023/09/05 04:37:24;;;;;;;;;4.33;2.67;;;;;-146.67;100.00;57155.34;5087191;28;9516;-74
2023/09/05 04:39:49;;;;;;;;;6.75;5.00;;;;;-146.67;100.00;57155.34;5101554;28;10041;-74
2023/09/05 04:42:15;;;;;;;;;7.00;4.25;;;;;-146.67;100.00;57155.34;5102705;28;9662;-74
2023/09/05 04:44:40;;;;;;;;;5.25;4.00;;;;;-146.67;100.00;57155.34;5102912;28;8799;-74
2023/09/05 04:47:24;;;;;;;;;4.75;4.00;;;;;-146.67;100.00;57155.34;5102713;28;8815;-74
2023/09/05 04:49:51;;;;;;;;;9.50;5.00;;;;;-146.67;100.00;57155.34;5100308;28;8873;-74
2023/09/05 04:52:18;;;;;;;;;5.75;5.25;;;;;-146.67;100.00;57155.34;5100437;28;9924;-74
2023/09/05 04:54:43;;;;;;;;;7.75;4.75;;;;;-146.67;100.00;57155.34;5102801;28;9689;-74
2023/09/05 04:57:10;;;;;;;;;5.00;5.00;;;;;-146.67;100.00;57155.34;5098696;28;10608;-74
2023/09/05 04:59:37;;;;;;;;;5.00;5.00;;;;;-146.67;100.00;57155.34;5081115;28;8776;-74
2023/09/05 05:02:06;;;;;;;;;6.00;5.00;;;;;-146.67;100.00;57155.34;5097902;28;10676;-74
2023/09/05 05:04:32;;;;;;;;;6.00;6.00;;;;;-146.67;100.00;57155.34;5083097;28;9823;-76
2023/09/05 05:06:57;;;;;;;;;6.25;4.25;;;;;-146.67;100.00;57155.34;5098293;28;9603;-74
2023/09/05 05:09:22;;;;;;;;;4.00;4.00;;;;;-146.67;100.00;57155.34;5081195;28;9933;-78
2023/09/05 05:11:48;;;;;;;;;5.00;5.00;;;;;-146.67;100.00;57155.34;5080348;28;8825;-75
2023/09/05 05:14:13;;;;;;;;;5.75;4.50;;;;;-146.67;100.00;57155.34;5085180;28;8925;-79
2023/09/05 05:16:42;;;;;;;;;5.50;5.50;;;;;-146.67;100.00;57155.34;5104817;28;8908;-78
2023/09/05 05:19:09;;;;;;;;;6.50;5.25;;;;;-146.67;100.00;57155.34;5104786;28;9994;-76
2023/09/05 05:21:35;;;;;;;;;5.50;5.50;;;;;-146.67;100.00;57155.34;5120895;28;9698;-82
2023/09/05 05:24:08;;;;;;;;;6.75;5.00;;;;;-146.67;100.00;57155.34;5105022;28;9888;-81
2023/09/05 05:26:33;;;;;;;;;6.50;5.25;;;;;-146.67;100.00;57155.34;5105680;28;8744;-79
2023/09/05 05:28:59;;;;;;;;;5.00;4.00;;;;;-146.67;100.00;57155.34;5104296;28;9996;-80
2023/09/05 05:31:26;;;;;;;;;6.75;4.25;;;;;-146.67;100.00;57155.34;5097325;28;8833;-81
2023/09/05 05:33:51;;;;;;;;;4.00;3.50;;;;;-146.67;100.00;57155.34;5097256;28;8940;-76
2023/09/05 05:36:17;;;;;;;;;6.25;5.00;;;;;-146.67;100.00;57155.34;5104523;28;9938;-77
2023/09/05 05:38:42;;;;;;;;;10.00;5.50;;;;;-146.67;100.00;57155.34;5119207;28;9995;-75
2023/09/05 05:41:09;;;;;;;;;7.00;7.00;;;;;-146.67;100.00;57155.34;5110603;28;8843;-75
2023/09/05 05:43:38;;;;;;;;;5.00;5.00;;;;;-146.67;100.00;57155.34;5104016;28;8791;-75
2023/09/05 05:46:04;;;;;;;;;5.25;5.00;;;;;-146.67;100.00;57155.34;5103120;28;9866;-76
2023/09/05 05:48:29;;;;;;;;;5.00;5.00;;;;;-146.67;100.00;57155.34;5107443;28;10037;-75
2023/09/05 05:50:58;;;;;;;;;5.25;5.25;;;;;-146.67;100.00;57155.34;5095709;28;9253;-75
2023/09/05 05:53:24;;;;;;;;;8.75;5.00;;;;;-146.67;100.00;57155.34;5095156;28;9856;-75
2023/09/05 05:55:50;;;;;;;;;4.75;4.75;;;;;-146.67;100.00;57155.34;5105019;28;9663;-75
2023/09/05 05:58:15;;;;;;;;;8.75;8.25;;;;;-146.67;100.00;57155.34;5104585;28;9792;-75
2023/09/05 06:00:45;;;;;;;;;11.50;7.50;;;;;-146.67;100.00;57155.34;5104560;28;8838;-75
2023/09/05 06:03:11;;;;;;;;;5.50;5.25;;;;;-146.67;100.00;57155.34;5102275;28;9897;-75
2023/09/05 06:05:37;;;;;;;;;7.50;6.00;;;;;-146.67;100.00;57155.34;5112957;28;9725;-75
2023/09/05 06:08:02;;;;;;;;;8.75;6.25;;;;;-146.67;100.00;57155.34;5125206;28;9574;-75
2023/09/05 06:10:28;;;;;;;;;7.75;6.25;;;;;-146.67;100.00;57155.34;5104385;28;8890;-74
2023/09/05 06:12:53;;;;;;;;;6.00;4.50;;;;;-146.67;100.00;57155.34;5090776;28;8896;-75
2023/09/05 06:15:19;;;;;;;;;6.00;4.75;;;;;-146.67;100.00;57155.34;5084942;28;8842;-75
2023/09/05 06:17:45;;;;;;;;;7.00;5.50;;;;;-146.67;100.00;57155.34;5112042;28;10396;-75
2023/09/05 06:20:12;;;;;;;;;6.25;3.00;;;;;-146.67;100.00;57155.34;5104576;28;8819;-75
2023/09/05 06:22:39;;;;;;;;;6.25;6.25;;;;;-146.67;100.00;57155.34;5110570;28;9142;-75
2023/09/05 06:25:05;;;;;;;;;11.25;8.25;;;;;-146.67;100.00;57155.34;5108571;28;9780;-76
2023/09/05 06:27:32;;;;;;;;;9.75;5.25;;;;;-146.67;100.00;57155.34;5101965;28;10224;-74
2023/09/05 06:29:57;;;;;;;;;8.25;7.00;;;;;-146.67;100.00;57155.34;5098972;28;9749;-75
2023/09/05 06:32:23;;;;;;;;;8.00;6.50;;;;;-146.67;100.00;57155.34;5083496;28;9756;-75
2023/09/05 06:34:50;;;;;;;;;7.00;6.75;;;;;-146.67;100.00;57155.34;5082639;28;8860;-76
2023/09/05 06:37:17;;;;;;;;;5.25;5.00;;;;;-146.67;100.00;57155.34;5101614;28;11093;-75
2023/09/05 06:39:42;;;;;;;;;7.00;6.00;;;;;-146.67;100.00;57155.34;5109003;28;9784;-75
2023/09/05 06:42:09;;;;;;;;;6.50;5.75;;;;;-146.67;100.00;57155.34;5098307;28;9609;-76
2023/09/05 06:44:34;;;;;;;;;11.25;8.50;;;;;-146.67;100.00;57155.34;5101920;28;8816;-76
2023/09/05 06:47:00;;;;;;;;;12.25;5.75;;;;;-146.67;100.00;57155.34;5103600;28;9977;-75
2023/09/05 06:49:26;;;;;;;;;8.00;5.50;;;;;-146.67;100.00;57155.34;5108889;28;8851;-75
2023/09/05 06:51:52;;;;;;;;;5.33;4.00;;;;;-146.67;100.00;57155.34;5106235;28;9522;-77
2023/09/05 06:54:17;;;;;;;;;4.33;4.00;;;;;-146.67;100.00;57155.34;5106874;28;8791;-75
2023/09/05 06:56:43;;;;;;;;;4.67;4.67;;;;;-146.67;100.00;57155.34;5105160;28;8825;-76
2023/09/05 06:59:17;;;;;;;;;5.67;4.00;;;;;-146.67;100.00;57155.34;5108438;28;8860;-76
2023/09/05 07:01:44;;;;;;;;;8.00;5.00;;;;;-146.67;100.00;57155.34;5090073;28;8941;-75
2023/09/05 07:04:10;;;;;;;;;6.00;5.00;;;;;-146.67;100.00;57155.34;5093746;28;9350;-75
2023/09/05 07:06:36;;;;;;;;;3.67;3.67;;;;;-146.67;100.00;57155.34;5094146;28;10130;-75
2023/09/05 07:09:03;;;;;;;;;3.00;2.67;;;;;-146.67;100.00;57155.34;5120838;28;9274;-76
2023/09/05 07:11:28;;;;;;;;;4.00;4.00;;;;;-146.67;100.00;57155.34;5109913;28;8803;-76
2023/09/05 07:13:54;;;;;;;;;4.67;3.67;;;;;-146.67;100.00;57155.34;5100488;28;10171;-76
2023/09/05 07:16:19;;;;;;;;;3.67;3.67;;;;;-146.67;100.00;57155.34;5113762;28;8874;-76
2023/09/05 07:18:45;;;;;;;;;6.00;6.00;;;;;-146.67;100.00;57155.34;5111566;28;8894;-76
2023/09/05 07:21:10;;;;;;;;;5.33;4.00;;;;;-146.67;100.00;57155.34;5111085;28;8820;-75
2023/09/05 07:23:36;;;;;;;;;5.00;3.33;;;;;-146.67;100.00;57155.34;5111104;28;8803;-76
2023/09/05 07:26:06;;;;;;;;;5.67;2.67;;;;;-146.67;100.00;57155.34;5102710;28;8829;-76
2023/09/05 07:28:32;;;;;;;;;4.00;4.00;;;;;-146.67;100.00;57155.34;5095939;28;8762;-76
2023/09/05 07:30:58;;;;;;;;;4.00;3.00;;;;;-146.67;100.00;57155.34;5081469;28;9295;-76
2023/09/05 07:33:23;;;;;;;;;3.33;3.33;;;;;-146.67;100.00;57155.34;5083537;28;9416;-76
2023/09/05 07:35:49;;;;;;;;;4.00;3.00;;;;;-146.67;100.00;57155.34;5082979;28;8813;-76
2023/09/05 07:38:16;;;;;;;;;4.33;4.33;;;;;-146.67;100.00;57155.34;5081694;28;8777;-76
2023/09/05 07:40:42;;;;;;;;;5.67;3.67;;;;;-146.67;100.00;57155.34;5082630;28;8749;-76
2023/09/05 07:43:07;;;;;;;;;4.00;4.00;;;;;-146.67;100.00;57155.34;5083531;28;9319;-76
2023/09/05 07:45:33;;;;;;;;;7.33;3.67;;;;;-146.67;100.00;57155.34;5098732;28;10952;-76
2023/09/05 07:47:58;;;;;;;;;3.67;3.67;;;;;-146.67;100.00;57155.34;5082073;28;9811;-76
2023/09/05 07:50:24;;;;;;;;;3.00;3.00;;;;;-146.67;100.00;57155.34;5082710;28;9236;-76
2023/09/05 07:52:50;;;;;;;;;5.67;3.67;;;;;-146.67;100.00;57155.34;5107102;28;8820;-76
2023/09/05 07:55:16;;;;;;;;;5.67;4.67;;;;;-146.67;100.00;57155.34;5105867;28;9944;-76
2023/09/05 07:57:42;;;;;;;;;5.00;5.00;;;;;-146.67;100.00;57155.34;5104540;28;8747;-76
2023/09/05 08:00:15;;;;;;;;;3.00;3.00;;;;;-146.67;100.00;57155.34;5104536;28;9202;-76
2023/09/05 08:02:41;;;;;;;;;3.33;3.33;;;;;-146.67;100.00;57155.34;5124234;28;8870;-76
2023/09/05 08:05:07;;;;;;;;;5.00;4.00;;;;;-146.67;100.00;57155.34;5113754;28;9265;-76
2023/09/05 08:07:33;;;;;;;;;8.67;4.67;;;;;-146.67;100.00;57155.34;5085201;28;9291;-76
2023/09/05 08:10:00;;;;;;;;;3.67;2.67;;;;;-146.67;100.00;57155.34;5085255;28;9444;-76
2023/09/05 08:12:26;;;;;;;;;4.67;2.67;;;;;-146.67;100.00;57155.34;5085337;28;8869;-76
2023/09/05 08:14:52;;;;;;;;;4.67;3.33;;;;;-146.67;100.00;57155.34;5084752;28;9275;-76
2023/09/05 08:17:18;;;;;;;;;5.00;3.00;;;;;-146.67;100.00;57155.34;5084661;28;9422;-76
2023/09/05 08:19:44;;;;;;;;;5.67;4.67;;;;;-146.67;100.00;57155.34;5084392;28;8821;-76
2023/09/05 08:22:12;;;;;;;;;4.00;3.67;;;;;-146.67;100.00;57155.34;5102699;28;8857;-76
2023/09/05 08:24:37;;;;;;;;;5.33;4.00;;;;;-146.67;100.00;57155.34;5085280;28;9212;-76
2023/09/05 08:27:04;;;;;;;;;5.00;5.00;;;;;-146.67;100.00;57155.34;5084615;28;9145;-76
2023/09/05 08:29:30;;;;;;;;;4.67;4.67;;;;;-146.67;100.00;57155.34;5084262;28;8880;-76
2023/09/05 08:31:55;;;;;;;;;7.33;5.00;;;;;-146.67;100.00;57155.34;5085171;28;9284;-76
2023/09/05 08:34:21;;;;;;;;;7.00;5.67;;;;;-146.67;100.00;57155.34;5084679;28;9931;-76
2023/09/05 08:36:46;;;;;;;;;4.00;4.00;;;;;-146.67;100.00;57155.34;5084896;28;8823;-76
2023/09/05 08:39:11;;;;;;;;;4.00;4.00;;;;;-146.67;100.00;57155.34;5102766;28;8821;-76
2023/09/05 08:41:37;;;;;;;;;6.00;5.00;;;;;-146.67;100.00;57155.34;5103013;28;8806;-76
2023/09/05 08:44:03;;;;;;;;;5.67;5.33;;;;;-146.67;100.00;57155.34;5102870;28;8814;-76
2023/09/05 08:46:29;;;;;;;;;6.00;4.00;;;;;-146.67;100.00;57155.34;5102685;28;8771;-75
2023/09/05 08:48:55;;;;;;;;;4.33;4.33;;;;;-146.67;100.00;57155.34;5102993;28;9295;-76
2023/09/05 08:51:21;;;;;;;;;5.67;2.67;;;;;-146.67;100.00;57155.34;5101741;28;9169;-76
2023/09/05 08:53:58;;;;;;;;;4.00;4.00;;;;;-146.67;100.00;57155.34;5102264;28;8873;-76
2023/09/05 08:56:25;;;;;;;;;8.00;2.67;;;;;-146.67;100.00;57155.34;5100946;28;9309;-76
2023/09/05 08:58:52;;;;;;;;;3.00;3.00;;;;;-146.67;100.00;57155.34;5083874;28;9128;-76
2023/09/05 09:01:19;;;;;;;;;6.00;3.00;;;;;-146.67;100.00;57155.34;5101116;28;9254;-76
2023/09/05 09:03:44;;;;;;;;;7.67;4.67;;;;;-146.67;100.00;57155.34;5101168;28;10155;-76
2023/09/05 09:06:10;;;;;;;;;4.00;4.00;;;;;-146.67;100.00;57155.34;5102819;28;9239;-76
2023/09/05 09:08:42;;;;;;;;;4.00;4.00;;;;;-146.67;100.00;57155.34;5101901;28;8841;-76
2023/09/05 09:11:09;;;;;;;;;4.00;3.67;;;;;-146.67;100.00;57155.34;5093082;28;8808;-76
2023/09/05 09:13:37;;;;;;;;;6.67;5.67;;;;;-146.67;100.00;57155.34;5081659;28;9286;-76
2023/09/05 09:16:03;;;;;;;;;8.33;6.00;;;;;-146.67;100.00;57155.34;5097972;28;9014;-76
2023/09/05 09:18:32;;;;;;;;;5.00;5.00;;;;;-146.67;100.00;57155.34;5081779;28;9172;-76
2023/09/05 09:21:02;;;;;;;;;10.00;7.67;;;;;-146.67;100.00;57155.34;5081608;28;8819;-75
2023/09/05 09:23:29;;;;;;;;;8.33;7.00;;;;;-146.67;100.00;57155.34;5080425;28;9977;-76
2023/09/05 09:25:55;;;;;;;;;5.33;5.33;;;;;-146.67;100.00;57155.34;5080589;28;9210;-75
2023/09/05 09:28:34;;;;;;;;;8.67;4.00;;;;;-146.67;100.00;57155.34;5081473;28;9062;-76
2023/09/05 09:31:05;;;;;;;;;5.67;5.33;;;;;-146.67;100.00;57155.34;5080873;28;9292;-76
2023/09/05 09:33:32;;;;;;;;;4.67;2.67;;;;;-146.67;100.00;57155.34;5082000;28;9188;-76
2023/09/05 09:36:01;;;;;;;;;5.33;4.33;;;;;-146.67;100.00;57155.34;5082114;28;9053;-76
2023/09/05 09:38:28;;;;;;;;;5.33;5.33;;;;;-146.67;100.00;57155.34;5081374;28;9232;-76
2023/09/05 09:40:55;;;;;;;;;5.00;4.00;;;;;-146.67;100.00;57155.34;5080121;28;9158;-76
2023/09/05 09:43:20;;;;;;;;;8.33;5.00;;;;;-146.67;100.00;57155.34;5082053;28;9308;-76
2023/09/05 09:45:46;;;;;;;;;3.67;3.67;;;;;-146.67;100.00;57155.34;5080529;28;9149;-76
2023/09/05 09:48:15;;;;;;;;;6.33;4.67;;;;;-146.67;100.00;57155.34;5063980;28;8813;-76
2023/09/05 09:50:43;;;;;;;;;7.67;4.33;;;;;-146.67;100.00;57155.34;5079475;28;8780;-76
2023/09/05 09:53:15;;;;;;;;;5.00;4.67;;;;;-146.67;100.00;57155.34;5097334;28;9196;-76
2023/09/05 09:55:43;;;;;;;;;5.33;5.00;;;;;-146.67;100.00;57155.34;5101374;28;9249;-76
2023/09/05 09:58:14;;;;;;;;;5.67;5.67;;;;;-146.67;100.00;57155.34;5100980;28;9044;-76
2023/09/05 10:00:45;;;;;;;;;5.33;5.00;;;;;-146.67;100.00;57155.34;5102091;28;9207;-76
2023/09/05 10:03:13;;;;;;;;;6.00;4.00;;;;;-146.67;100.00;57155.34;5103612;28;9247;-76
2023/09/05 10:05:41;;;;;;;;;5.67;5.67;;;;;-146.67;100.00;57155.34;5104006;28;9101;-76
2023/09/05 10:08:09;;;;;;;;;5.67;4.67;;;;;-146.67;100.00;57155.34;5086681;28;9115;-76
2023/09/05 10:10:38;;;;;;;;;7.00;6.33;;;;;-146.67;100.00;57155.34;5104597;28;9117;-75
2023/09/05 10:13:09;;;;;;;;;6.67;6.00;;;;;-146.67;100.00;57155.34;5104007;28;10313;-76
2023/09/05 10:15:36;;;;;;;;;4.33;2.67;;;;;-146.67;100.00;57155.34;5103891;28;9140;-76
2023/09/05 10:18:02;;;;;;;;;8.00;6.00;;;;;-146.67;100.00;57155.34;5104020;28;9305;-76
2023/09/05 10:20:28;;;;;;;;;7.00;5.67;;;;;-146.67;100.00;57155.34;5102035;28;9135;-76
2023/09/05 10:22:54;;;;;;;;;4.00;4.00;;;;;-146.67;100.00;57155.34;5082899;28;10223;-76
2023/09/05 10:25:20;;;;;;;;;4.00;4.00;;;;;-146.67;100.00;57155.34;5084655;28;9055;-76
2023/09/05 10:27:46;;;;;;;;;6.00;6.00;;;;;-146.67;100.00;57155.34;5084591;28;8773;-76
2023/09/05 10:30:12;;;;;;;;;6.33;3.33;;;;;-146.67;100.00;57155.34;5083446;28;9146;-76
2023/09/05 10:32:42;;;;;;;;;6.33;3.67;;;;;-146.67;100.00;57155.34;5083387;28;9728;-76
2023/09/05 10:35:07;;;;;;;;;9.00;6.00;;;;;-146.67;100.00;57155.34;5083442;28;8939;-76
2023/09/05 10:37:33;;;;;;;;;9.33;6.00;;;;;-146.67;100.00;57155.34;5084417;28;9445;-76
2023/09/05 10:40:07;;;;;;;;;4.00;4.00;;;;;-146.67;100.00;57155.34;5080326;28;9372;-76
2023/09/05 10:42:33;;;;;;;;;5.33;5.33;;;;;-146.67;100.00;57155.34;5102659;28;8771;-75
2023/09/05 10:45:15;;;;;;;;;7.00;5.00;;;;;-146.67;100.00;57155.34;5106262;28;8947;-76
2023/09/05 10:47:41;;;;;;;;;3.00;3.00;;;;;-146.67;100.00;57155.34;5104246;28;9007;-76
2023/09/05 10:50:08;;;;;;;;;4.67;4.67;;;;;-146.67;100.00;57155.34;5100301;28;8806;-78
2023/09/05 10:52:34;;;;;;;;;4.00;4.00;;;;;-146.67;100.00;57155.34;5101804;28;10025;-77
2023/09/05 10:55:29;;;;;;;;;4.50;3.75;;;;;-146.67;100.00;57155.34;5111337;28;9759;-77
2023/09/05 10:57:56;;;;;;;;;5.00;4.25;;;;;-146.67;100.00;57155.34;5118821;28;8818;-77
2023/09/05 11:00:22;;;;;;;;;3.67;3.67;;;;;-146.67;100.00;57155.34;5086429;28;8791;-75
2023/09/05 11:02:49;;;;;;;;;4.00;4.00;;;;;-146.67;100.00;57155.34;5103912;28;8927;-78
2023/09/05 11:05:20;;;;;;;;;6.50;4.00;;;;;-146.67;100.00;57155.34;5102655;28;8747;-78
2023/09/05 11:07:50;;;;;;;;;6.00;4.50;;;;;-146.67;100.00;57155.34;5105758;28;8823;-78
2023/09/05 11:10:29;;;;;;;;;6.00;4.50;;;;;-146.67;100.00;57155.34;5105988;28;8767;-75
2023/09/05 11:13:15;;;;;;;;;4.75;3.50;;;;;-146.67;100.00;57155.34;5103275;28;8826;-77
2023/09/05 11:15:44;;;;;;;;;6.67;3.00;;;;;-146.67;100.00;57155.34;5101723;28;8727;-84